sensor_id;sensor_type;location;lat;lon;timestamp;pressure;altitude;pressure_sealevel;temperature;humidity
33496;BME280;19836;55.812;37.560;2022-08-21T00:00:37;100467.75;;;19.27;41.96
33496;BME280;19836;55.812;37.560;2022-08-21T00:03:07;100467.03;;;19.24;41.74
33496;BME280;19836;55.812;37.560;2022-08-21T00:05:38;100469.75;;;19.24;41.95
33496;BME280;19836;55.812;37.560;2022-08-21T00:08:05;100458.16;;;19.20;41.96
33496;BME280;19836;55.812;37.560;2022-08-21T00:10:32;100465.59;;;19.17;41.98
33496;BME280;19836;55.812;37.560;2022-08-21T00:13:00;100461.22;;;19.14;42.00
33496;BME280;19836;55.812;37.560;2022-08-21T00:15:28;100461.22;;;19.14;42.18
33496;BME280;19836;55.812;37.560;2022-08-21T00:17:57;100457.66;;;19.12;42.05
33496;BME280;19836;55.812;37.560;2022-08-21T00:20:25;100453.28;;;19.10;42.22
33496;BME280;19836;55.812;37.560;2022-08-21T00:22:51;100453.19;;;19.11;41.90
33496;BME280;19836;55.812;37.560;2022-08-21T00:25:18;100462.31;;;19.10;42.32
33496;BME280;19836;55.812;37.560;2022-08-21T00:27:44;100466.97;;;19.08;42.19
33496;BME280;19836;55.812;37.560;2022-08-21T00:30:22;100464.34;;;19.07;42.37
33496;BME280;19836;55.812;37.560;2022-08-21T00:32:48;100457.84;;;19.09;42.46
33496;BME280;19836;55.812;37.560;2022-08-21T00:35:16;100451.44;;;19.10;42.27
33496;BME280;19836;55.812;37.560;2022-08-21T00:37:43;100461.34;;;19.11;42.22
33496;BME280;19836;55.812;37.560;2022-08-21T00:40:12;100455.06;;;19.11;42.28
33496;BME280;19836;55.812;37.560;2022-08-21T00:42:38;100453.47;;;19.07;42.22
33496;BME280;19836;55.812;37.560;2022-08-21T00:45:05;100454.44;;;19.06;42.39
33496;BME280;19836;55.812;37.560;2022-08-21T00:47:31;100449.22;;;19.01;42.39
33496;BME280;19836;55.812;37.560;2022-08-21T00:49:57;100450.13;;;19.02;42.46
33496;BME280;19836;55.812;37.560;2022-08-21T00:52:27;100452.91;;;19.00;42.29
33496;BME280;19836;55.812;37.560;2022-08-21T00:54:55;100444.13;;;18.95;42.40
33496;BME280;19836;55.812;37.560;2022-08-21T00:57:26;100452.41;;;18.92;42.51
33496;BME280;19836;55.812;37.560;2022-08-21T00:59:56;100447.25;;;18.88;42.43
33496;BME280;19836;55.812;37.560;2022-08-21T01:02:23;100445.50;;;18.87;42.72
33496;BME280;19836;55.812;37.560;2022-08-21T01:04:49;100447.50;;;18.83;42.72
33496;BME280;19836;55.812;37.560;2022-08-21T01:07:15;100454.03;;;18.79;42.53
33496;BME280;19836;55.812;37.560;2022-08-21T01:09:42;100449.72;;;18.75;42.51
33496;BME280;19836;55.812;37.560;2022-08-21T01:12:09;100448.19;;;18.70;42.63
33496;BME280;19836;55.812;37.560;2022-08-21T01:14:35;100448.28;;;18.68;42.83
33496;BME280;19836;55.812;37.560;2022-08-21T01:17:02;100454.84;;;18.64;42.97
33496;BME280;19836;55.812;37.560;2022-08-21T01:19:29;100454.13;;;18.61;42.97
33496;BME280;19836;55.812;37.560;2022-08-21T01:22:09;100448.03;;;18.56;43.04
33496;BME280;19836;55.812;37.560;2022-08-21T01:24:35;100460.88;;;18.52;43.23
33496;BME280;19836;55.812;37.560;2022-08-21T01:27:02;100456.59;;;18.48;43.31
33496;BME280;19836;55.812;37.560;2022-08-21T01:29:36;100456.59;;;18.48;43.33
33496;BME280;19836;55.812;37.560;2022-08-21T01:32:07;100457.50;;;18.47;43.38
33496;BME280;19836;55.812;37.560;2022-08-21T01:34:37;100451.28;;;18.45;43.40
33496;BME280;19836;55.812;37.560;2022-08-21T01:37:03;100451.53;;;18.41;43.34
33496;BME280;19836;55.812;37.560;2022-08-21T01:39:35;100452.56;;;18.38;43.42
33496;BME280;19836;55.812;37.560;2022-08-21T01:42:02;100444.34;;;18.40;43.47
33496;BME280;19836;55.812;37.560;2022-08-21T01:44:29;100447.16;;;18.38;43.36
33496;BME280;19836;55.812;37.560;2022-08-21T01:46:58;100447.28;;;18.35;43.68
33496;BME280;19836;55.812;37.560;2022-08-21T01:49:24;100452.03;;;18.30;43.64
33496;BME280;19836;55.812;37.560;2022-08-21T01:51:51;100454.81;;;18.29;43.52
33496;BME280;19836;55.812;37.560;2022-08-21T01:54:17;100452.19;;;18.27;43.81
33496;BME280;19836;55.812;37.560;2022-08-21T01:56:49;100457.72;;;18.26;43.74
33496;BME280;19836;55.812;37.560;2022-08-21T01:59:16;100459.47;;;18.27;43.74
33496;BME280;19836;55.812;37.560;2022-08-21T02:01:42;100454.16;;;18.24;43.86
33496;BME280;19836;55.812;37.560;2022-08-21T02:04:09;100454.41;;;18.19;43.80
33496;BME280;19836;55.812;37.560;2022-08-21T02:06:36;100462.69;;;18.16;44.16
33496;BME280;19836;55.812;37.560;2022-08-21T02:09:04;100449.13;;;18.16;44.00
33496;BME280;19836;55.812;37.560;2022-08-21T02:11:32;100452.72;;;18.17;44.04
33496;BME280;19836;55.812;37.560;2022-08-21T02:13:58;100454.63;;;18.15;44.28
33496;BME280;19836;55.812;37.560;2022-08-21T02:16:24;100459.19;;;18.14;43.89
33496;BME280;19836;55.812;37.560;2022-08-21T02:18:51;100464.44;;;18.17;44.07
33496;BME280;19836;55.812;37.560;2022-08-21T02:21:19;100462.56;;;18.19;44.04
33496;BME280;19836;55.812;37.560;2022-08-21T02:23:45;100459.84;;;18.19;44.04
33496;BME280;19836;55.812;37.560;2022-08-21T02:26:12;100462.25;;;18.25;43.83
33496;BME280;19836;55.812;37.560;2022-08-21T02:28:38;100465.59;;;18.30;43.57
33496;BME280;19836;55.812;37.560;2022-08-21T02:31:06;100464.59;;;18.33;43.18
33496;BME280;19836;55.812;37.560;2022-08-21T02:33:34;100461.81;;;18.34;43.29
33496;BME280;19836;55.812;37.560;2022-08-21T02:36:01;100460.78;;;18.37;43.14
33496;BME280;19836;55.812;37.560;2022-08-21T02:38:31;100459.75;;;18.39;43.00
33496;BME280;19836;55.812;37.560;2022-08-21T02:41:05;100461.50;;;18.40;43.03
33496;BME280;19836;55.812;37.560;2022-08-21T02:43:31;100450.50;;;18.43;42.93
33496;BME280;19836;55.812;37.560;2022-08-21T02:45:58;100454.00;;;18.45;42.76
33496;BME280;19836;55.812;37.560;2022-08-21T02:48:27;100465.75;;;18.46;43.08
33496;BME280;19836;55.812;37.560;2022-08-21T02:51:02;100459.28;;;18.48;42.85
33496;BME280;19836;55.812;37.560;2022-08-21T02:53:29;100465.38;;;18.53;42.86
33496;BME280;19836;55.812;37.560;2022-08-21T02:55:57;100460.81;;;18.54;42.71
33496;BME280;19836;55.812;37.560;2022-08-21T02:58:28;100462.56;;;18.55;42.77
33496;BME280;19836;55.812;37.560;2022-08-21T03:00:58;100469.66;;;18.57;42.68
33496;BME280;19836;55.812;37.560;2022-08-21T03:03:26;100465.06;;;18.59;42.52
33496;BME280;19836;55.812;37.560;2022-08-21T03:05:52;100461.31;;;18.62;42.57
33496;BME280;19836;55.812;37.560;2022-08-21T03:08:19;100471.13;;;18.64;42.55
33496;BME280;19836;55.812;37.560;2022-08-21T03:10:49;100471.84;;;18.68;42.26
33496;BME280;19836;55.812;37.560;2022-08-21T03:13:16;100461.38;;;18.77;42.38
33496;BME280;19836;55.812;37.560;2022-08-21T03:15:45;100462.34;;;18.76;42.16
33496;BME280;19836;55.812;37.560;2022-08-21T03:18:12;100469.50;;;18.77;41.95
33496;BME280;19836;55.812;37.560;2022-08-21T03:20:40;100472.09;;;18.80;42.03
33496;BME280;19836;55.812;37.560;2022-08-21T03:23:07;100466.59;;;18.82;41.84
33496;BME280;19836;55.812;37.560;2022-08-21T03:25:34;100470.91;;;18.86;42.28
33496;BME280;19836;55.812;37.560;2022-08-21T03:28:01;100478.78;;;18.90;42.21
33496;BME280;19836;55.812;37.560;2022-08-21T03:30:30;100480.41;;;18.94;41.89
33496;BME280;19836;55.812;37.560;2022-08-21T03:32:59;100469.34;;;18.97;41.85
33496;BME280;19836;55.812;37.560;2022-08-21T03:35:26;100474.63;;;19.00;41.68
33496;BME280;19836;55.812;37.560;2022-08-21T03:37:53;100477.09;;;19.05;41.88
33496;BME280;19836;55.812;37.560;2022-08-21T03:40:20;100476.06;;;19.07;41.92
33496;BME280;19836;55.812;37.560;2022-08-21T03:42:47;100479.59;;;19.09;41.96
33496;BME280;19836;55.812;37.560;2022-08-21T03:45:15;100482.94;;;19.14;41.68
33496;BME280;19836;55.812;37.560;2022-08-21T03:47:56;100468.25;;;19.18;41.70
33496;BME280;19836;55.812;37.560;2022-08-21T03:50:24;100486.16;;;19.22;41.70
33496;BME280;19836;55.812;37.560;2022-08-21T03:52:50;100472.47;;;19.24;41.57
33496;BME280;19836;55.812;37.560;2022-08-21T03:55:16;100478.63;;;19.27;41.61
33496;BME280;19836;55.812;37.560;2022-08-21T03:57:42;100477.28;;;19.36;41.57
33496;BME280;19836;55.812;37.560;2022-08-21T04:00:10;100470.53;;;19.43;41.12
33496;BME280;19836;55.812;37.560;2022-08-21T04:02:38;100476.59;;;19.48;41.17
33496;BME280;19836;55.812;37.560;2022-08-21T04:05:05;100471.94;;;19.50;41.00
33496;BME280;19836;55.812;37.560;2022-08-21T04:07:31;100475.47;;;19.52;41.13
33496;BME280;19836;55.812;37.560;2022-08-21T04:09:57;100469.00;;;19.54;41.21
33496;BME280;19836;55.812;37.560;2022-08-21T04:12:22;100476.81;;;19.60;40.82
33496;BME280;19836;55.812;37.560;2022-08-21T04:14:49;100472.97;;;19.64;41.25
33496;BME280;19836;55.812;37.560;2022-08-21T04:17:17;100474.56;;;19.68;41.14
33496;BME280;19836;55.812;37.560;2022-08-21T04:19:43;100473.38;;;19.72;41.01
33496;BME280;19836;55.812;37.560;2022-08-21T04:22:09;100472.25;;;19.76;41.08
33496;BME280;19836;55.812;37.560;2022-08-21T04:24:35;100479.13;;;19.83;41.00
33496;BME280;19836;55.812;37.560;2022-08-21T04:27:01;100473.34;;;19.89;40.90
33496;BME280;19836;55.812;37.560;2022-08-21T04:29:27;100484.75;;;19.96;40.40
33496;BME280;19836;55.812;37.560;2022-08-21T04:31:53;100477.22;;;20.01;40.56
33496;BME280;19836;55.812;37.560;2022-08-21T04:34:18;100471.66;;;20.02;40.54
33496;BME280;19836;55.812;37.560;2022-08-21T04:36:44;100473.44;;;20.03;40.54
33496;BME280;19836;55.812;37.560;2022-08-21T04:39:10;100474.09;;;20.08;40.50
33496;BME280;19836;55.812;37.560;2022-08-21T04:41:36;100477.50;;;20.12;40.45
33496;BME280;19836;55.812;37.560;2022-08-21T04:44:03;100486.38;;;20.15;40.50
33496;BME280;19836;55.812;37.560;2022-08-21T04:46:29;100494.38;;;20.18;40.61
33496;BME280;19836;55.812;37.560;2022-08-21T04:48:55;100487.97;;;20.19;40.39
33496;BME280;19836;55.812;37.560;2022-08-21T04:51:33;100493.41;;;20.19;40.76
33496;BME280;19836;55.812;37.560;2022-08-21T04:54:05;100486.81;;;20.23;40.75
33496;BME280;19836;55.812;37.560;2022-08-21T04:56:39;100476.34;;;20.31;40.26
33496;BME280;19836;55.812;37.560;2022-08-21T04:59:13;100477.94;;;20.35;40.25
33496;BME280;19836;55.812;37.560;2022-08-21T05:01:42;100488.66;;;20.38;39.75
33496;BME280;19836;55.812;37.560;2022-08-21T05:04:12;100485.75;;;20.41;39.63
33496;BME280;19836;55.812;37.560;2022-08-21T05:06:40;100485.28;;;20.49;39.47
33496;BME280;19836;55.812;37.560;2022-08-21T05:09:08;100490.28;;;20.56;39.38
33496;BME280;19836;55.812;37.560;2022-08-21T05:11:35;100481.75;;;20.62;39.28
33496;BME280;19836;55.812;37.560;2022-08-21T05:14:04;100481.38;;;20.68;39.01
33496;BME280;19836;55.812;37.560;2022-08-21T05:16:30;100474.00;;;20.70;38.98
33496;BME280;19836;55.812;37.560;2022-08-21T05:18:55;100470.13;;;20.74;39.24
33496;BME280;19836;55.812;37.560;2022-08-21T05:21:21;100466.22;;;20.78;39.08
33496;BME280;19836;55.812;37.560;2022-08-21T05:23:47;100459.56;;;20.84;38.87
33496;BME280;19836;55.812;37.560;2022-08-21T05:26:13;100465.69;;;20.87;38.68
33496;BME280;19836;55.812;37.560;2022-08-21T05:28:41;100466.41;;;20.91;38.71
33496;BME280;19836;55.812;37.560;2022-08-21T05:31:07;100467.81;;;20.98;38.61
33496;BME280;19836;55.812;37.560;2022-08-21T05:33:33;100464.78;;;21.02;38.33
33496;BME280;19836;55.812;37.560;2022-08-21T05:35:59;100461.00;;;21.05;38.12
33496;BME280;19836;55.812;37.560;2022-08-21T05:38:25;100470.44;;;21.13;38.00
33496;BME280;19836;55.812;37.560;2022-08-21T05:40:53;100461.94;;;21.19;38.42
33496;BME280;19836;55.812;37.560;2022-08-21T05:43:19;100458.00;;;21.23;38.14
33496;BME280;19836;55.812;37.560;2022-08-21T05:45:46;100473.28;;;21.26;38.10
33496;BME280;19836;55.812;37.560;2022-08-21T05:48:20;100465.03;;;21.27;37.94
33496;BME280;19836;55.812;37.560;2022-08-21T05:50:48;100461.72;;;21.36;38.01
33496;BME280;19836;55.812;37.560;2022-08-21T05:53:16;100466.78;;;21.42;37.68
33496;BME280;19836;55.812;37.560;2022-08-21T05:55:42;100456.56;;;21.46;37.36
33496;BME280;19836;55.812;37.560;2022-08-21T05:58:08;100459.19;;;21.47;37.24
33496;BME280;19836;55.812;37.560;2022-08-21T06:00:34;100458.03;;;21.51;36.92
33496;BME280;19836;55.812;37.560;2022-08-21T06:03:00;100461.44;;;21.55;36.79
33496;BME280;19836;55.812;37.560;2022-08-21T06:05:26;100452.59;;;21.65;36.65
33496;BME280;19836;55.812;37.560;2022-08-21T06:07:52;100454.88;;;21.73;36.35
33496;BME280;19836;55.812;37.560;2022-08-21T06:10:18;100458.09;;;21.79;36.23
33496;BME280;19836;55.812;37.560;2022-08-21T06:12:44;100449.19;;;21.90;36.31
33496;BME280;19836;55.812;37.560;2022-08-21T06:15:12;100449.47;;;21.99;36.08
33496;BME280;19836;55.812;37.560;2022-08-21T06:17:40;100443.38;;;22.08;36.12
33496;BME280;19836;55.812;37.560;2022-08-21T06:20:06;100445.75;;;22.14;35.77
33496;BME280;19836;55.812;37.560;2022-08-21T06:22:32;100446.31;;;22.19;35.80
33496;BME280;19836;55.812;37.560;2022-08-21T06:24:58;100444.81;;;22.28;35.66
33496;BME280;19836;55.812;37.560;2022-08-21T06:27:24;100443.63;;;22.32;35.32
33496;BME280;19836;55.812;37.560;2022-08-21T06:29:50;100440.59;;;22.36;34.90
33496;BME280;19836;55.812;37.560;2022-08-21T06:32:16;100435.53;;;22.44;34.75
33496;BME280;19836;55.812;37.560;2022-08-21T06:34:42;100436.84;;;22.51;34.80
33496;BME280;19836;55.812;37.560;2022-08-21T06:37:08;100438.19;;;22.58;34.21
33496;BME280;19836;55.812;37.560;2022-08-21T06:39:38;100435.81;;;22.66;34.13
33496;BME280;19836;55.812;37.560;2022-08-21T06:42:05;100438.91;;;22.74;34.01
33496;BME280;19836;55.812;37.560;2022-08-21T06:44:32;100432.78;;;22.83;33.88
33496;BME280;19836;55.812;37.560;2022-08-21T06:46:57;100425.69;;;22.93;33.71
33496;BME280;19836;55.812;37.560;2022-08-21T06:49:26;100433.06;;;23.05;33.49
33496;BME280;19836;55.812;37.560;2022-08-21T06:51:52;100425.97;;;23.15;33.84
33496;BME280;19836;55.812;37.560;2022-08-21T06:54:21;100424.13;;;23.28;33.64
33496;BME280;19836;55.812;37.560;2022-08-21T06:56:47;100425.84;;;23.42;33.24
33496;BME280;19836;55.812;37.560;2022-08-21T06:59:13;100423.34;;;23.51;32.83
33496;BME280;19836;55.812;37.560;2022-08-21T07:01:39;100423.56;;;23.61;32.87
33496;BME280;19836;55.812;37.560;2022-08-21T07:04:04;100424.75;;;23.69;32.59
33496;BME280;19836;55.812;37.560;2022-08-21T07:06:30;100430.53;;;23.77;32.25
33496;BME280;19836;55.812;37.560;2022-08-21T07:08:56;100420.13;;;23.82;31.96
33496;BME280;19836;55.812;37.560;2022-08-21T07:11:23;100421.22;;;23.92;31.89
33496;BME280;19836;55.812;37.560;2022-08-21T07:13:50;100425.78;;;24.04;31.72
33496;BME280;19836;55.812;37.560;2022-08-21T07:16:19;100424.78;;;24.18;31.45
33496;BME280;19836;55.812;37.560;2022-08-21T07:18:45;100422.56;;;24.23;31.07
33496;BME280;19836;55.812;37.560;2022-08-21T07:21:11;100419.25;;;24.30;30.74
33496;BME280;19836;55.812;37.560;2022-08-21T07:23:42;100415.41;;;24.33;30.34
33496;BME280;19836;55.812;37.560;2022-08-21T07:26:09;100408.47;;;24.40;30.23
33496;BME280;19836;55.812;37.560;2022-08-21T07:28:35;100404.91;;;24.50;30.22
33496;BME280;19836;55.812;37.560;2022-08-21T07:31:03;100417.91;;;24.59;30.04
33496;BME280;19836;55.812;37.560;2022-08-21T07:33:32;100405.63;;;24.65;29.69
33496;BME280;19836;55.812;37.560;2022-08-21T07:35:59;100415.00;;;24.73;29.75
33496;BME280;19836;55.812;37.560;2022-08-21T07:38:25;100404.44;;;24.80;29.16
33496;BME280;19836;55.812;37.560;2022-08-21T07:40:54;100406.59;;;24.87;28.86
33496;BME280;19836;55.812;37.560;2022-08-21T07:43:21;100403.34;;;24.93;28.40
33496;BME280;19836;55.812;37.560;2022-08-21T07:45:47;100408.34;;;24.99;28.21
33496;BME280;19836;55.812;37.560;2022-08-21T07:48:15;100405.16;;;25.05;27.76
33496;BME280;19836;55.812;37.560;2022-08-21T07:50:48;100405.28;;;25.15;28.05
33496;BME280;19836;55.812;37.560;2022-08-21T07:53:14;100411.03;;;25.23;27.68
33496;BME280;19836;55.812;37.560;2022-08-21T07:55:41;100406.28;;;25.25;27.26
33496;BME280;19836;55.812;37.560;2022-08-21T07:58:07;100403.47;;;25.26;27.38
33496;BME280;19836;55.812;37.560;2022-08-21T08:00:33;100410.47;;;25.30;27.44
33496;BME280;19836;55.812;37.560;2022-08-21T08:03:00;100407.72;;;25.41;27.66
33496;BME280;19836;55.812;37.560;2022-08-21T08:05:28;100412.50;;;25.50;27.16
33496;BME280;19836;55.812;37.560;2022-08-21T08:07:55;100416.59;;;25.56;26.91
33496;BME280;19836;55.812;37.560;2022-08-21T08:10:22;100402.50;;;25.60;26.70
33496;BME280;19836;55.812;37.560;2022-08-21T08:12:49;100390.03;;;25.56;26.13
33496;BME280;19836;55.812;37.560;2022-08-21T08:15:19;100392.28;;;25.40;26.30
33496;BME280;19836;55.812;37.560;2022-08-21T08:17:46;100393.50;;;25.25;26.49
33496;BME280;19836;55.812;37.560;2022-08-21T08:20:14;100382.84;;;25.21;26.46
33496;BME280;19836;55.812;37.560;2022-08-21T08:22:42;100374.66;;;25.32;26.24
33496;BME280;19836;55.812;37.560;2022-08-21T08:25:12;100373.66;;;25.55;25.90
33496;BME280;19836;55.812;37.560;2022-08-21T08:27:39;100376.75;;;25.83;25.85
33496;BME280;19836;55.812;37.560;2022-08-21T08:30:07;100377.03;;;26.02;25.73
33496;BME280;19836;55.812;37.560;2022-08-21T08:32:34;100374.34;;;26.23;25.68
33496;BME280;19836;55.812;37.560;2022-08-21T08:35:00;100369.16;;;26.40;25.83
33496;BME280;19836;55.812;37.560;2022-08-21T08:37:26;100367.38;;;26.50;25.84
33496;BME280;19836;55.812;37.560;2022-08-21T08:39:52;100355.75;;;26.58;25.57
33496;BME280;19836;55.812;37.560;2022-08-21T08:42:29;100352.31;;;26.65;25.50
33496;BME280;19836;55.812;37.560;2022-08-21T08:45:16;100357.09;;;26.63;25.60
33496;BME280;19836;55.812;37.560;2022-08-21T08:47:47;100355.84;;;26.67;25.28
33496;BME280;19836;55.812;37.560;2022-08-21T08:50:24;100360.72;;;26.84;24.73
33496;BME280;19836;55.812;37.560;2022-08-21T08:52:59;100356.84;;;27.07;24.85
33496;BME280;19836;55.812;37.560;2022-08-21T08:55:40;100357.00;;;27.26;24.68
33496;BME280;19836;55.812;37.560;2022-08-21T08:58:20;100342.59;;;27.43;24.30
33496;BME280;19836;55.812;37.560;2022-08-21T09:00:50;100361.22;;;27.60;24.12
33496;BME280;19836;55.812;37.560;2022-08-21T09:03:17;100344.91;;;27.78;24.11
33496;BME280;19836;55.812;37.560;2022-08-21T09:05:55;100357.72;;;27.88;23.86
33496;BME280;19836;55.812;37.560;2022-08-21T09:11:14;100344.06;;;28.36;22.66
33496;BME280;19836;55.812;37.560;2022-08-21T09:14:01;100347.28;;;28.50;22.28
33496;BME280;19836;55.812;37.560;2022-08-21T09:19:44;100343.75;;;28.86;21.84
33496;BME280;19836;55.812;37.560;2022-08-21T09:22:37;100354.22;;;29.11;20.89
33496;BME280;19836;55.812;37.560;2022-08-21T09:25:24;100348.59;;;29.49;20.47
33496;BME280;19836;55.812;37.560;2022-08-21T09:27:51;100350.00;;;29.72;20.11
33496;BME280;19836;55.812;37.560;2022-08-21T09:30:18;100343.78;;;29.61;20.23
33496;BME280;19836;55.812;37.560;2022-08-21T09:32:45;100341.00;;;29.51;20.20
33496;BME280;19836;55.812;37.560;2022-08-21T09:35:16;100338.88;;;29.45;20.70
33496;BME280;19836;55.812;37.560;2022-08-21T09:45:32;100329.81;;;30.78;20.00
33496;BME280;19836;55.812;37.560;2022-08-21T09:50:40;100331.13;;;32.68;18.61
33496;BME280;19836;55.812;37.560;2022-08-21T09:53:20;100335.28;;;33.44;18.20
33496;BME280;19836;55.812;37.560;2022-08-21T09:58:34;100340.47;;;33.63;17.23
33496;BME280;19836;55.812;37.560;2022-08-21T10:01:03;100338.47;;;32.85;16.94
33496;BME280;19836;55.812;37.560;2022-08-21T10:03:39;100348.00;;;33.22;16.66
33496;BME280;19836;55.812;37.560;2022-08-21T10:06:08;100336.22;;;33.12;16.58
33496;BME280;19836;55.812;37.560;2022-08-21T10:08:40;100340.50;;;32.59;16.96
33496;BME280;19836;55.812;37.560;2022-08-21T10:11:10;100348.63;;;31.95;16.89
33496;BME280;19836;55.812;37.560;2022-08-21T10:19:16;100337.31;;;31.11;17.43
33496;BME280;19836;55.812;37.560;2022-08-21T10:24:36;100328.94;;;31.80;17.81
33496;BME280;19836;55.812;37.560;2022-08-21T10:27:34;100316.53;;;32.34;17.11
33496;BME280;19836;55.812;37.560;2022-08-21T10:30:12;100320.03;;;32.68;16.73
33496;BME280;19836;55.812;37.560;2022-08-21T10:32:44;100316.25;;;32.85;16.67
33496;BME280;19836;55.812;37.560;2022-08-21T10:35:29;100317.72;;;32.39;16.85
33496;BME280;19836;55.812;37.560;2022-08-21T10:38:09;100319.69;;;31.64;16.85
33496;BME280;19836;55.812;37.560;2022-08-21T10:46:19;100318.59;;;30.18;18.10
33496;BME280;19836;55.812;37.560;2022-08-21T10:48:56;100317.72;;;29.90;18.30
33496;BME280;19836;55.812;37.560;2022-08-21T10:54:31;100324.19;;;29.54;18.98
33496;BME280;19836;55.812;37.560;2022-08-21T10:57:11;100309.34;;;29.55;18.92
33496;BME280;19836;55.812;37.560;2022-08-21T10:59:47;100313.13;;;29.54;19.01
33496;BME280;19836;55.812;37.560;2022-08-21T11:03:33;100319.38;;;29.47;19.23
33496;BME280;19836;55.812;37.560;2022-08-21T11:05:33;100308.81;;;29.42;19.18
33496;BME280;19836;55.812;37.560;2022-08-21T11:08:12;100301.50;;;29.41;19.58
33496;BME280;19836;55.812;37.560;2022-08-21T11:10:47;100302.44;;;29.32;19.58
33496;BME280;19836;55.812;37.560;2022-08-21T11:18:51;100296.94;;;29.23;19.57
33496;BME280;19836;55.812;37.560;2022-08-21T11:29:54;100296.44;;;29.00;19.83
33496;BME280;19836;55.812;37.560;2022-08-21T11:35:03;100313.59;;;28.56;19.48
33496;BME280;19836;55.812;37.560;2022-08-21T11:40:12;100310.72;;;28.48;19.59
33496;BME280;19836;55.812;37.560;2022-08-21T11:43:43;100313.47;;;28.48;19.41
33496;BME280;19836;55.812;37.560;2022-08-21T11:45:52;100311.56;;;28.49;19.34
33496;BME280;19836;55.812;37.560;2022-08-21T11:51:22;100299.25;;;28.43;19.82
33496;BME280;19836;55.812;37.560;2022-08-21T11:54:10;100295.84;;;28.30;19.93
33496;BME280;19836;55.812;37.560;2022-08-21T11:56:45;100293.81;;;28.23;20.16
33496;BME280;19836;55.812;37.560;2022-08-21T12:02:19;100295.25;;;28.08;20.40
33496;BME280;19836;55.812;37.560;2022-08-21T12:04:52;100299.59;;;27.91;20.60
33496;BME280;19836;55.812;37.560;2022-08-21T12:07:40;100296.31;;;27.77;20.66
33496;BME280;19836;55.812;37.560;2022-08-21T12:10:11;100300.09;;;27.66;20.72
33496;BME280;19836;55.812;37.560;2022-08-21T12:12:40;100307.28;;;27.58;21.18
33496;BME280;19836;55.812;37.560;2022-08-21T12:18:34;100281.06;;;27.54;21.37
33496;BME280;19836;55.812;37.560;2022-08-21T12:20:45;100283.25;;;27.60;21.30
33496;BME280;19836;55.812;37.560;2022-08-21T12:26:27;100277.81;;;27.79;21.44
33496;BME280;19836;55.812;37.560;2022-08-21T12:29:33;100275.78;;;27.81;21.48
33496;BME280;19836;55.812;37.560;2022-08-21T12:34:50;100272.56;;;27.76;21.17
33496;BME280;19836;55.812;37.560;2022-08-21T12:37:30;100280.16;;;27.83;21.35
33496;BME280;19836;55.812;37.560;2022-08-21T12:40:01;100276.13;;;28.06;21.31
33496;BME280;19836;55.812;37.560;2022-08-21T12:42:39;100279.19;;;28.22;21.37
33496;BME280;19836;55.812;37.560;2022-08-21T12:45:19;100265.38;;;28.32;21.46
33496;BME280;19836;55.812;37.560;2022-08-21T12:47:53;100271.78;;;28.32;21.40
33496;BME280;19836;55.812;37.560;2022-08-21T12:50:42;100278.00;;;28.34;21.10
33496;BME280;19836;55.812;37.560;2022-08-21T12:53:19;100280.97;;;28.42;21.22
33496;BME280;19836;55.812;37.560;2022-08-21T12:55:49;100275.16;;;28.55;21.18
33496;BME280;19836;55.812;37.560;2022-08-21T12:58:23;100280.22;;;28.59;20.94
33496;BME280;19836;55.812;37.560;2022-08-21T13:00:53;100269.75;;;28.72;21.03
33496;BME280;19836;55.812;37.560;2022-08-21T13:03:20;100267.94;;;28.90;20.90
33496;BME280;19836;55.812;37.560;2022-08-21T13:05:47;100276.13;;;28.82;20.91
33496;BME280;19836;55.812;37.560;2022-08-21T13:08:13;100265.97;;;28.73;20.78
33496;BME280;19836;55.812;37.560;2022-08-21T13:10:40;100265.81;;;28.75;20.86
33496;BME280;19836;55.812;37.560;2022-08-21T13:13:11;100264.22;;;28.72;21.02
33496;BME280;19836;55.812;37.560;2022-08-21T13:15:42;100255.09;;;28.62;21.03
33496;BME280;19836;55.812;37.560;2022-08-21T13:18:08;100250.56;;;28.61;21.05
33496;BME280;19836;55.812;37.560;2022-08-21T13:20:39;100267.72;;;28.55;20.81
33496;BME280;19836;55.812;37.560;2022-08-21T13:23:22;100266.88;;;28.55;20.66
33496;BME280;19836;55.812;37.560;2022-08-21T13:25:49;100253.50;;;28.50;20.63
33496;BME280;19836;55.812;37.560;2022-08-21T13:28:15;100252.50;;;28.42;21.13
33496;BME280;19836;55.812;37.560;2022-08-21T13:30:43;100265.13;;;28.44;21.54
33496;BME280;19836;55.812;37.560;2022-08-21T13:33:12;100259.59;;;28.54;21.89
33496;BME280;19836;55.812;37.560;2022-08-21T13:35:47;100253.03;;;28.64;21.94
33496;BME280;19836;55.812;37.560;2022-08-21T13:38:15;100254.66;;;28.57;21.66
33496;BME280;19836;55.812;37.560;2022-08-21T13:40:48;100257.56;;;28.46;21.46
33496;BME280;19836;55.812;37.560;2022-08-21T13:43:18;100237.34;;;28.36;21.50
33496;BME280;19836;55.812;37.560;2022-08-21T13:45:52;100241.88;;;28.37;21.81
33496;BME280;19836;55.812;37.560;2022-08-21T13:48:20;100236.66;;;28.34;21.62
33496;BME280;19836;55.812;37.560;2022-08-21T13:50:47;100246.50;;;28.37;21.53
33496;BME280;19836;55.812;37.560;2022-08-21T13:53:43;100243.91;;;28.54;21.55
33496;BME280;19836;55.812;37.560;2022-08-21T13:56:26;100243.03;;;28.63;21.44
33496;BME280;19836;55.812;37.560;2022-08-21T13:58:54;100243.03;;;28.63;21.54
33496;BME280;19836;55.812;37.560;2022-08-21T14:01:56;100245.47;;;28.66;21.47
33496;BME280;19836;55.812;37.560;2022-08-21T14:04:24;100246.22;;;28.68;21.44